24h
KLIENDITUGI:
Saartelennuliinid: +372 58856336 (24/7)
Estairi piletikassa lennujaamas:
+372 6058887; +372 55603687

07.11.2018 õhtune Transaviabaltika lend KTB676 Tallinn - Kärdla ja KTB677 Kärdla – Tallinn väljalend jääb ära. Lennu ära jäämise põhjustab madalad pilved Kärdla lennuvälja kohal. Reisijatele võimaldatakse tasuta lennupileti ümberbroneerimine reisija soovi kohasele mõnele teisele Tallinn-Kärdla või Kärdla-Tallinn lennule. Reisijatele kes ei soovi lennupileti ümberbroneerimist teisele lennule tagastatakse piletiraha. Oma soovist tuleb teada anda e-mailile [email protected] Lisainformatsioon telefonil 58856336

EEKA Kärdla lennuväli

FCEO32 EETN 071300 TAF EEKA 071300Z 0714/0720 16009KT 0500 FG VV001

TEMPO 0714/0720 2000 BR OVC003=

METAR EEKA 071350Z 17008KT 0900 FG VV002 07/07 Q1019=
Kuupäev: 
07/11/2018